DMSAG EDFB-EDFM
Flight info
| Callsign | DMSAG |
|---|---|
| Flight time | 0h 31m |
| Altitude | 3000 |
| Route | EDFC/N0110F060 DCT VP119 |
| Aircraft | VL3/L-SFG/C |
Departure
| Time | 2026-05-08 06:03 |
|---|---|
| Airport | Reichelsheim Airfield (EDFB) |
Arrival
| Time | 2026-05-08 06:34 |
|---|---|
| Airport | Mannheim-City Airport (EDFM) |
| Time | Latitude | Longitude | Altitude | Speed | Heading |
|---|---|---|---|---|---|
| 2026-05-08 06:00 | 50.33315 | 8.87892 | 414 ft | 0 kts | 360° |
| 2026-05-08 06:02 | 50.33363 | 8.87889 | 413 ft | 37 kts | 354° |
| 2026-05-08 06:02 | 50.33875 | 8.87874 | 440 ft | 93 kts | 359° |
| 2026-05-08 06:02 | 50.34558 | 8.87941 | 722 ft | 104 kts | 9° |
| 2026-05-08 06:03 | 50.35309 | 8.88157 | 1032 ft | 115 kts | 9° |
| 2026-05-08 06:03 | 50.36011 | 8.88713 | 1287 ft | 123 kts | 54° |
| 2026-05-08 06:03 | 50.35993 | 8.90042 | 1339 ft | 134 kts | 124° |
| 2026-05-08 06:03 | 50.35174 | 8.90527 | 1484 ft | 132 kts | 186° |
| 2026-05-08 06:04 | 50.34267 | 8.90301 | 1579 ft | 129 kts | 189° |
| 2026-05-08 06:04 | 50.33392 | 8.90018 | 1713 ft | 130 kts | 192° |
| 2026-05-08 06:04 | 50.32500 | 8.89696 | 1767 ft | 132 kts | 192° |
| 2026-05-08 06:04 | 50.31633 | 8.89376 | 1980 ft | 124 kts | 193° |
| 2026-05-08 06:05 | 50.30799 | 8.89235 | 2208 ft | 120 kts | 169° |
| 2026-05-08 06:05 | 50.30048 | 8.89530 | 2427 ft | 119 kts | 164° |
| 2026-05-08 06:05 | 50.29253 | 8.89870 | 2660 ft | 118 kts | 164° |
| 2026-05-08 06:05 | 50.28472 | 8.90221 | 2894 ft | 116 kts | 163° |
| 2026-05-08 06:06 | 50.27682 | 8.90584 | 2994 ft | 124 kts | 163° |
| 2026-05-08 06:06 | 50.26833 | 8.90977 | 2998 ft | 129 kts | 163° |
| 2026-05-08 06:06 | 50.25953 | 8.91386 | 2997 ft | 134 kts | 163° |
| 2026-05-08 06:06 | 50.25362 | 8.91663 | 3001 ft | 134 kts | 163° |
| 2026-05-08 06:07 | 50.24491 | 8.92068 | 3002 ft | 128 kts | 163° |
| 2026-05-08 06:07 | 50.23647 | 8.92462 | 2994 ft | 126 kts | 163° |
| 2026-05-08 06:07 | 50.22544 | 8.92976 | 2996 ft | 124 kts | 163° |
| 2026-05-08 06:07 | 50.21714 | 8.93362 | 2996 ft | 124 kts | 163° |
| 2026-05-08 06:08 | 50.21156 | 8.93622 | 2992 ft | 124 kts | 163° |
| 2026-05-08 06:08 | 50.20330 | 8.94007 | 2997 ft | 124 kts | 163° |
| 2026-05-08 06:08 | 50.19504 | 8.94391 | 2995 ft | 123 kts | 163° |
| 2026-05-08 06:08 | 50.18682 | 8.94774 | 2997 ft | 123 kts | 163° |
| 2026-05-08 06:09 | 50.17869 | 8.95153 | 2995 ft | 124 kts | 163° |
| 2026-05-08 06:09 | 50.17046 | 8.95535 | 2996 ft | 123 kts | 163° |
| 2026-05-08 06:09 | 50.16222 | 8.95918 | 2999 ft | 123 kts | 163° |
| 2026-05-08 06:09 | 50.15402 | 8.96300 | 2999 ft | 123 kts | 163° |
| 2026-05-08 06:10 | 50.14582 | 8.96680 | 2999 ft | 123 kts | 163° |
| 2026-05-08 06:10 | 50.13764 | 8.97060 | 2998 ft | 123 kts | 163° |
| 2026-05-08 06:10 | 50.12942 | 8.97441 | 2996 ft | 123 kts | 163° |
| 2026-05-08 06:10 | 50.12121 | 8.97822 | 2993 ft | 123 kts | 163° |
| 2026-05-08 06:11 | 50.11303 | 8.98202 | 2998 ft | 123 kts | 163° |
| 2026-05-08 06:11 | 50.10481 | 8.98582 | 2999 ft | 123 kts | 163° |
| 2026-05-08 06:11 | 50.09659 | 8.98964 | 2996 ft | 123 kts | 163° |
| 2026-05-08 06:11 | 50.08840 | 8.99344 | 2997 ft | 123 kts | 163° |
| 2026-05-08 06:12 | 50.08019 | 8.99723 | 2993 ft | 123 kts | 163° |
| 2026-05-08 06:12 | 50.07199 | 9.00103 | 2996 ft | 123 kts | 163° |
| 2026-05-08 06:12 | 50.06381 | 9.00482 | 2993 ft | 123 kts | 163° |
| 2026-05-08 06:12 | 50.05561 | 9.00861 | 2995 ft | 123 kts | 163° |
| 2026-05-08 06:13 | 50.04754 | 9.01235 | 2992 ft | 123 kts | 163° |
| 2026-05-08 06:13 | 50.03924 | 9.01618 | 2995 ft | 123 kts | 163° |
| 2026-05-08 06:13 | 50.03116 | 9.01991 | 2992 ft | 123 kts | 163° |
| 2026-05-08 06:13 | 50.02295 | 9.02371 | 2993 ft | 123 kts | 163° |
| 2026-05-08 06:14 | 50.01476 | 9.02749 | 2992 ft | 123 kts | 163° |
| 2026-05-08 06:14 | 50.00657 | 9.03127 | 2994 ft | 123 kts | 163° |
| 2026-05-08 06:14 | 49.99839 | 9.03505 | 2994 ft | 123 kts | 163° |
| 2026-05-08 06:14 | 49.99021 | 9.03882 | 2991 ft | 123 kts | 163° |
| 2026-05-08 06:15 | 49.98201 | 9.04260 | 2995 ft | 123 kts | 163° |
| 2026-05-08 06:15 | 49.97383 | 9.04637 | 2991 ft | 123 kts | 163° |
| 2026-05-08 06:15 | 49.96566 | 9.05014 | 2993 ft | 122 kts | 163° |
| 2026-05-08 06:15 | 49.95749 | 9.05391 | 2991 ft | 122 kts | 163° |
| 2026-05-08 06:16 | 49.94932 | 9.05766 | 2992 ft | 122 kts | 163° |
| 2026-05-08 06:16 | 49.94112 | 9.06018 | 2986 ft | 123 kts | 183° |
| 2026-05-08 06:16 | 49.93329 | 9.05528 | 2987 ft | 123 kts | 218° |
| 2026-05-08 06:16 | 49.92683 | 9.04648 | 2989 ft | 123 kts | 220° |
| 2026-05-08 06:17 | 49.91382 | 9.02908 | 2990 ft | 124 kts | 220° |
| 2026-05-08 06:17 | 49.90730 | 9.02038 | 2989 ft | 124 kts | 220° |
| 2026-05-08 06:17 | 49.90078 | 9.01168 | 2993 ft | 124 kts | 220° |
| 2026-05-08 06:18 | 49.89428 | 9.00300 | 2992 ft | 123 kts | 220° |
| 2026-05-08 06:18 | 49.88776 | 8.99430 | 2996 ft | 124 kts | 220° |
| 2026-05-08 06:18 | 49.88123 | 8.98558 | 2994 ft | 124 kts | 220° |
| 2026-05-08 06:18 | 49.87471 | 8.97689 | 2997 ft | 124 kts | 220° |
| 2026-05-08 06:19 | 49.86817 | 8.96819 | 2996 ft | 123 kts | 220° |
| 2026-05-08 06:19 | 49.86165 | 8.95950 | 2996 ft | 123 kts | 220° |
| 2026-05-08 06:19 | 49.85523 | 8.95094 | 2995 ft | 123 kts | 220° |
| 2026-05-08 06:19 | 49.84870 | 8.94225 | 2997 ft | 123 kts | 220° |
| 2026-05-08 06:20 | 49.84218 | 8.93357 | 2996 ft | 123 kts | 220° |
| 2026-05-08 06:20 | 49.83565 | 8.92488 | 2998 ft | 124 kts | 220° |
| 2026-05-08 06:20 | 49.82915 | 8.91623 | 2996 ft | 124 kts | 220° |
| 2026-05-08 06:20 | 49.82262 | 8.90755 | 2997 ft | 123 kts | 220° |
| 2026-05-08 06:21 | 49.81610 | 8.89889 | 2997 ft | 123 kts | 220° |
| 2026-05-08 06:21 | 49.80958 | 8.89023 | 2997 ft | 123 kts | 220° |
| 2026-05-08 06:21 | 49.80306 | 8.88157 | 2997 ft | 123 kts | 220° |
| 2026-05-08 06:21 | 49.79655 | 8.87293 | 2996 ft | 124 kts | 220° |
| 2026-05-08 06:22 | 49.79002 | 8.86426 | 2998 ft | 124 kts | 220° |
| 2026-05-08 06:22 | 49.78358 | 8.85572 | 2995 ft | 124 kts | 220° |
| 2026-05-08 06:22 | 49.77706 | 8.84707 | 2995 ft | 124 kts | 220° |
| 2026-05-08 06:22 | 49.77052 | 8.83840 | 2997 ft | 124 kts | 220° |
| 2026-05-08 06:23 | 49.76398 | 8.82973 | 2995 ft | 124 kts | 220° |
| 2026-05-08 06:23 | 49.75746 | 8.82109 | 2996 ft | 124 kts | 220° |
| 2026-05-08 06:23 | 49.75092 | 8.81244 | 2994 ft | 124 kts | 220° |
| 2026-05-08 06:23 | 49.74437 | 8.80377 | 2995 ft | 124 kts | 220° |
| 2026-05-08 06:24 | 49.73782 | 8.79510 | 2994 ft | 124 kts | 220° |
| 2026-05-08 06:24 | 49.73126 | 8.78643 | 2995 ft | 124 kts | 220° |
| 2026-05-08 06:24 | 49.72471 | 8.77777 | 2997 ft | 124 kts | 220° |
| 2026-05-08 06:24 | 49.71814 | 8.76908 | 2996 ft | 124 kts | 220° |
| 2026-05-08 06:25 | 49.71159 | 8.76042 | 2997 ft | 124 kts | 220° |
| 2026-05-08 06:25 | 49.70506 | 8.75180 | 2998 ft | 124 kts | 220° |
| 2026-05-08 06:25 | 49.69853 | 8.74318 | 3001 ft | 124 kts | 220° |
| 2026-05-08 06:25 | 49.69198 | 8.73453 | 3002 ft | 124 kts | 220° |
| 2026-05-08 06:26 | 49.68542 | 8.72587 | 3002 ft | 124 kts | 220° |
| 2026-05-08 06:26 | 49.67887 | 8.71725 | 3003 ft | 124 kts | 220° |
| 2026-05-08 06:26 | 49.67232 | 8.70861 | 3004 ft | 124 kts | 220° |
| 2026-05-08 06:26 | 49.66577 | 8.69997 | 3005 ft | 124 kts | 220° |
| 2026-05-08 06:27 | 49.65921 | 8.69133 | 3007 ft | 124 kts | 220° |
| 2026-05-08 06:27 | 49.65271 | 8.68277 | 3007 ft | 124 kts | 220° |
| 2026-05-08 06:27 | 49.64605 | 8.67400 | 3008 ft | 124 kts | 220° |
| 2026-05-08 06:27 | 49.63956 | 8.66546 | 3009 ft | 124 kts | 220° |
| 2026-05-08 06:28 | 49.63298 | 8.65681 | 3010 ft | 124 kts | 220° |
| 2026-05-08 06:28 | 49.62640 | 8.64816 | 3011 ft | 124 kts | 220° |
| 2026-05-08 06:28 | 49.61983 | 8.63953 | 3010 ft | 124 kts | 220° |
| 2026-05-08 06:28 | 49.61325 | 8.63088 | 3013 ft | 124 kts | 220° |
| 2026-05-08 06:29 | 49.60651 | 8.62202 | 2913 ft | 131 kts | 220° |
| 2026-05-08 06:29 | 49.59947 | 8.61278 | 2795 ft | 134 kts | 220° |
| 2026-05-08 06:29 | 49.59237 | 8.60346 | 2678 ft | 134 kts | 220° |
| 2026-05-08 06:29 | 49.58522 | 8.59409 | 2565 ft | 135 kts | 220° |
| 2026-05-08 06:30 | 49.57811 | 8.58476 | 2476 ft | 134 kts | 220° |
| 2026-05-08 06:30 | 49.57108 | 8.57555 | 2356 ft | 135 kts | 220° |
| 2026-05-08 06:30 | 49.56390 | 8.56615 | 2237 ft | 136 kts | 219° |
| 2026-05-08 06:30 | 49.55656 | 8.55703 | 2117 ft | 136 kts | 210° |
| 2026-05-08 06:31 | 49.54776 | 8.55210 | 2026 ft | 133 kts | 195° |
| 2026-05-08 06:31 | 49.53912 | 8.54778 | 2026 ft | 129 kts | 196° |
| 2026-05-08 06:31 | 49.53128 | 8.54392 | 2008 ft | 105 kts | 194° |
| 2026-05-08 06:31 | 49.52488 | 8.54291 | 1965 ft | 85 kts | 174° |
| 2026-05-08 06:32 | 49.51881 | 8.54323 | 1775 ft | 95 kts | 175° |
| 2026-05-08 06:32 | 49.51140 | 8.54368 | 1626 ft | 114 kts | 176° |
| 2026-05-08 06:32 | 49.50345 | 8.54427 | 1625 ft | 115 kts | 175° |
| 2026-05-08 06:32 | 49.49544 | 8.54488 | 1629 ft | 115 kts | 176° |
| 2026-05-08 06:33 | 49.48751 | 8.54550 | 1631 ft | 115 kts | 176° |
| 2026-05-08 06:33 | 49.47922 | 8.54468 | 1225 ft | 122 kts | 191° |
| 2026-05-08 06:33 | 49.47173 | 8.54041 | 949 ft | 110 kts | 231° |
| 2026-05-08 06:33 | 49.47129 | 8.53049 | 568 ft | 81 kts | 292° |
| 2026-05-08 06:34 | 49.47243 | 8.52318 | 386 ft | 69 kts | 277° |
| 2026-05-08 06:34 | 49.47264 | 8.51639 | 320 ft | 51 kts | 277° |
| 2026-05-08 06:34 | 49.47270 | 8.51526 | 321 ft | 0 kts | 202° |
| 2026-05-08 06:39 | 49.47262 | 8.51536 | 321 ft | 8 kts | 91° |
| 2026-05-08 06:40 | 49.47263 | 8.51636 | 320 ft | 10 kts | 92° |
| 2026-05-08 06:40 | 49.47259 | 8.51754 | 321 ft | 11 kts | 94° |
| 2026-05-08 06:40 | 49.47254 | 8.51875 | 322 ft | 11 kts | 94° |
| 2026-05-08 06:40 | 49.47249 | 8.51994 | 323 ft | 12 kts | 97° |
| 2026-05-08 06:41 | 49.47253 | 8.52045 | 323 ft | 0 kts | 272° |
| 2026-05-08 06:42 | 49.47260 | 8.51748 | 321 ft | 73 kts | 274° |
| 2026-05-08 06:43 | 49.47309 | 8.50757 | 455 ft | 107 kts | 277° |
| 2026-05-08 06:43 | 49.47392 | 8.49567 | 661 ft | 115 kts | 280° |
| 2026-05-08 06:43 | 49.47531 | 8.48325 | 883 ft | 126 kts | 283° |
| 2026-05-08 06:43 | 49.47698 | 8.46901 | 1131 ft | 145 kts | 285° |
| 2026-05-08 06:44 | 49.48089 | 8.45858 | 1202 ft | 152 kts | 318° |
| 2026-05-08 06:44 | 49.48167 | 8.45771 | 1281 ft | 140 kts | 329° |
| 2026-05-08 06:44 | 49.49125 | 8.45132 | 1224 ft | 160 kts | 345° |
| 2026-05-08 06:44 | 49.50202 | 8.44683 | 1249 ft | 161 kts | 344° |
| 2026-05-08 06:45 | 49.51262 | 8.44182 | 1244 ft | 155 kts | 342° |
| 2026-05-08 06:45 | 49.52264 | 8.43661 | 1255 ft | 149 kts | 342° |
| 2026-05-08 06:45 | 49.53241 | 8.43200 | 1350 ft | 144 kts | 344° |
| 2026-05-08 06:45 | 49.54180 | 8.42760 | 1501 ft | 142 kts | 344° |
| 2026-05-08 06:46 | 49.55135 | 8.42701 | 1572 ft | 141 kts | 28° |
| 2026-05-08 06:46 | 49.55545 | 8.44022 | 1563 ft | 145 kts | 86° |
| 2026-05-08 06:46 | 49.55579 | 8.45562 | 1665 ft | 143 kts | 87° |
| 2026-05-08 06:46 | 49.55589 | 8.47070 | 1831 ft | 138 kts | 90° |
| 2026-05-08 06:47 | 49.55583 | 8.48529 | 2031 ft | 135 kts | 90° |
| 2026-05-08 06:47 | 49.55572 | 8.49967 | 2217 ft | 134 kts | 90° |
| 2026-05-08 06:47 | 49.55562 | 8.51397 | 2403 ft | 135 kts | 90° |
| 2026-05-08 06:47 | 49.55548 | 8.52850 | 2588 ft | 136 kts | 90° |
| 2026-05-08 06:48 | 49.55525 | 8.54320 | 2768 ft | 137 kts | 91° |
| 2026-05-08 06:48 | 49.55599 | 8.55777 | 2931 ft | 138 kts | 70° |
| 2026-05-08 06:48 | 49.55975 | 8.57011 | 3088 ft | 138 kts | 64° |
| 2026-05-08 06:49 | 49.56096 | 8.57400 | 3138 ft | 138 kts | 64° |
| 2026-05-08 06:49 | 49.56680 | 8.58553 | 3304 ft | 142 kts | 44° |
| 2026-05-08 06:49 | 49.57400 | 8.59619 | 3475 ft | 143 kts | 45° |
| 2026-05-08 06:50 | 49.58134 | 8.60718 | 3508 ft | 150 kts | 45° |
| 2026-05-08 06:50 | 49.58894 | 8.61857 | 3503 ft | 154 kts | 45° |
| 2026-05-08 06:50 | 49.59665 | 8.63017 | 3503 ft | 155 kts | 45° |
| 2026-05-08 06:50 | 49.60439 | 8.64177 | 3502 ft | 156 kts | 44° |
| 2026-05-08 06:51 | 49.61231 | 8.65328 | 3503 ft | 156 kts | 44° |
| 2026-05-08 06:51 | 49.62022 | 8.66474 | 3501 ft | 156 kts | 44° |
| 2026-05-08 06:51 | 49.62814 | 8.67622 | 3502 ft | 156 kts | 44° |
| 2026-05-08 06:51 | 49.63601 | 8.68766 | 3503 ft | 156 kts | 44° |
| 2026-05-08 06:52 | 49.64397 | 8.69924 | 3494 ft | 157 kts | 44° |
| 2026-05-08 06:52 | 49.65189 | 8.71077 | 3498 ft | 156 kts | 44° |
| 2026-05-08 06:52 | 49.65970 | 8.72215 | 3499 ft | 157 kts | 44° |
| 2026-05-08 06:52 | 49.66711 | 8.73295 | 3492 ft | 157 kts | 44° |
| 2026-05-08 06:53 | 49.67503 | 8.74448 | 3497 ft | 157 kts | 44° |
| 2026-05-08 06:53 | 49.68295 | 8.75603 | 3494 ft | 157 kts | 44° |
| 2026-05-08 06:53 | 49.69087 | 8.76760 | 3497 ft | 157 kts | 44° |
| 2026-05-08 06:53 | 49.69878 | 8.77917 | 3492 ft | 156 kts | 44° |
| 2026-05-08 06:54 | 49.70668 | 8.79075 | 3496 ft | 157 kts | 44° |
| 2026-05-08 06:54 | 49.71458 | 8.80236 | 3495 ft | 157 kts | 44° |
| 2026-05-08 06:54 | 49.72253 | 8.81398 | 3496 ft | 157 kts | 43° |
| 2026-05-08 06:54 | 49.73076 | 8.82501 | 3497 ft | 157 kts | 41° |
| 2026-05-08 06:55 | 49.73907 | 8.83596 | 3497 ft | 157 kts | 41° |
| 2026-05-08 06:55 | 49.74736 | 8.84689 | 3494 ft | 157 kts | 41° |
| 2026-05-08 06:55 | 49.75285 | 8.85412 | 3497 ft | 157 kts | 41° |
| 2026-05-08 06:55 | 49.76115 | 8.86508 | 3496 ft | 157 kts | 41° |
| 2026-05-08 06:56 | 49.76944 | 8.87600 | 3491 ft | 157 kts | 41° |
| 2026-05-08 06:56 | 49.77772 | 8.88694 | 3496 ft | 156 kts | 41° |
| 2026-05-08 06:56 | 49.78575 | 8.89755 | 3491 ft | 149 kts | 41° |
| 2026-05-08 06:56 | 49.79357 | 8.90789 | 3481 ft | 147 kts | 41° |
| 2026-05-08 06:57 | 49.80132 | 8.91812 | 3479 ft | 146 kts | 41° |
| 2026-05-08 06:57 | 49.80901 | 8.92829 | 3477 ft | 145 kts | 41° |
| 2026-05-08 06:57 | 49.81670 | 8.93846 | 3480 ft | 145 kts | 41° |
| 2026-05-08 06:57 | 49.82427 | 8.94851 | 3468 ft | 146 kts | 40° |
| 2026-05-08 06:58 | 49.83224 | 8.95910 | 3336 ft | 151 kts | 41° |
| 2026-05-08 06:58 | 49.84011 | 8.96955 | 3213 ft | 151 kts | 41° |
| 2026-05-08 06:58 | 49.84807 | 8.98009 | 3088 ft | 150 kts | 41° |
| 2026-05-08 06:58 | 49.85601 | 8.99053 | 2995 ft | 148 kts | 41° |
| 2026-05-08 06:59 | 49.86372 | 9.00062 | 2992 ft | 143 kts | 41° |
| 2026-05-08 06:59 | 49.87164 | 9.00989 | 2989 ft | 143 kts | 31° |
| 2026-05-08 06:59 | 49.88042 | 9.01718 | 2983 ft | 143 kts | 28° |
| 2026-05-08 06:59 | 49.88920 | 9.02442 | 2980 ft | 143 kts | 29° |
| 2026-05-08 07:00 | 49.89808 | 9.03172 | 2895 ft | 147 kts | 29° |
| 2026-05-08 07:00 | 49.90721 | 9.03920 | 2769 ft | 149 kts | 29° |
| 2026-05-08 07:00 | 49.91642 | 9.04667 | 2644 ft | 150 kts | 29° |
| 2026-05-08 07:00 | 49.92569 | 9.05413 | 2518 ft | 149 kts | 29° |
| 2026-05-08 07:01 | 49.93485 | 9.06114 | 2489 ft | 145 kts | 20° |
| 2026-05-08 07:01 | 49.94470 | 9.06005 | 2480 ft | 144 kts | 343° |
| 2026-05-08 07:01 | 49.95430 | 9.05573 | 2482 ft | 143 kts | 346° |
| 2026-05-08 07:01 | 49.96390 | 9.05158 | 2480 ft | 143 kts | 346° |
| 2026-05-08 07:02 | 49.97346 | 9.04742 | 2484 ft | 143 kts | 346° |
| 2026-05-08 07:02 | 49.98293 | 9.04331 | 2489 ft | 143 kts | 346° |
| 2026-05-08 07:02 | 49.99247 | 9.03915 | 2485 ft | 143 kts | 346° |
| 2026-05-08 07:02 | 50.00202 | 9.03497 | 2487 ft | 142 kts | 346° |
| 2026-05-08 07:03 | 50.01155 | 9.03082 | 2489 ft | 142 kts | 346° |
| 2026-05-08 07:03 | 50.02113 | 9.02665 | 2480 ft | 143 kts | 346° |
| 2026-05-08 07:03 | 50.03066 | 9.02248 | 2491 ft | 143 kts | 346° |
| 2026-05-08 07:03 | 50.04026 | 9.01830 | 2491 ft | 143 kts | 346° |
| 2026-05-08 07:04 | 50.04987 | 9.01410 | 2490 ft | 143 kts | 346° |
| 2026-05-08 07:04 | 50.05945 | 9.00990 | 2494 ft | 143 kts | 346° |
| 2026-05-08 07:04 | 50.06904 | 9.00572 | 2494 ft | 143 kts | 346° |
| 2026-05-08 07:04 | 50.07862 | 9.00151 | 2495 ft | 143 kts | 346° |
| 2026-05-08 07:05 | 50.08821 | 8.99734 | 2493 ft | 143 kts | 346° |
| 2026-05-08 07:05 | 50.09774 | 8.99318 | 2495 ft | 142 kts | 346° |
| 2026-05-08 07:05 | 50.10718 | 8.98907 | 2494 ft | 142 kts | 346° |
| 2026-05-08 07:05 | 50.11672 | 8.98494 | 2494 ft | 142 kts | 346° |
| 2026-05-08 07:06 | 50.12635 | 8.98075 | 2492 ft | 142 kts | 346° |
| 2026-05-08 07:06 | 50.13575 | 8.97669 | 2494 ft | 142 kts | 346° |
| 2026-05-08 07:06 | 50.14525 | 8.97261 | 2489 ft | 142 kts | 346° |
| 2026-05-08 07:06 | 50.15478 | 8.96853 | 2492 ft | 142 kts | 346° |
| 2026-05-08 07:07 | 50.16429 | 8.96446 | 2491 ft | 142 kts | 346° |
| 2026-05-08 07:07 | 50.17385 | 8.96036 | 2490 ft | 142 kts | 346° |
| 2026-05-08 07:07 | 50.18340 | 8.95629 | 2493 ft | 142 kts | 346° |
| 2026-05-08 07:07 | 50.19293 | 8.95223 | 2497 ft | 142 kts | 346° |
| 2026-05-08 07:08 | 50.20246 | 8.94819 | 2499 ft | 142 kts | 346° |
| 2026-05-08 07:08 | 50.21186 | 8.94420 | 2496 ft | 139 kts | 346° |
| 2026-05-08 07:08 | 50.22113 | 8.94026 | 2497 ft | 137 kts | 346° |
| 2026-05-08 07:08 | 50.23031 | 8.93636 | 2493 ft | 137 kts | 346° |
| 2026-05-08 07:09 | 50.23965 | 8.93394 | 2498 ft | 136 kts | 2° |
| 2026-05-08 07:09 | 50.24908 | 8.93468 | 2379 ft | 133 kts | 4° |
| 2026-05-08 07:09 | 50.25826 | 8.93533 | 2241 ft | 130 kts | 4° |
| 2026-05-08 07:09 | 50.26726 | 8.93594 | 2106 ft | 129 kts | 4° |
| 2026-05-08 07:10 | 50.27626 | 8.93651 | 1958 ft | 129 kts | 4° |
| 2026-05-08 07:10 | 50.28512 | 8.93701 | 1832 ft | 129 kts | 4° |
| 2026-05-08 07:10 | 50.29408 | 8.93751 | 1688 ft | 128 kts | 3° |
| 2026-05-08 07:10 | 50.30286 | 8.93571 | 1600 ft | 125 kts | 344° |
| 2026-05-08 07:11 | 50.31072 | 8.93134 | 1459 ft | 113 kts | 333° |
| 2026-05-08 07:11 | 50.31446 | 8.92156 | 1219 ft | 109 kts | 275° |
| 2026-05-08 07:11 | 50.31451 | 8.91064 | 1182 ft | 91 kts | 274° |
| 2026-05-08 07:11 | 50.31477 | 8.90153 | 1100 ft | 77 kts | 281° |
| 2026-05-08 07:12 | 50.31573 | 8.89255 | 1012 ft | 84 kts | 284° |
| 2026-05-08 07:12 | 50.31725 | 8.88469 | 896 ft | 71 kts | 313° |
| 2026-05-08 07:12 | 50.32103 | 8.88045 | 806 ft | 66 kts | 340° |
| 2026-05-08 07:12 | 50.32554 | 8.87903 | 647 ft | 66 kts | 359° |
| 2026-05-08 07:13 | 50.33011 | 8.87903 | 515 ft | 65 kts | 0° |
| 2026-05-08 07:13 | 50.33451 | 8.87885 | 414 ft | 55 kts | 0° |
| 2026-05-08 07:13 | 50.33752 | 8.87872 | 412 ft | 22 kts | 356° |
| 2026-05-08 07:13 | 50.33766 | 8.87871 | 412 ft | 0 kts | 358° |